createdAt,value
2022-11-06T00:01:24.787Z,96609.47
2022-11-06T00:03:54.986Z,96657.38
2022-11-06T00:06:40.395Z,96659.25
2022-11-06T00:09:10.798Z,96576.28
2022-11-06T00:11:38.934Z,96669.06
2022-11-06T00:14:06.394Z,96641.69
2022-11-06T00:16:33.063Z,96552.50
2022-11-06T00:19:01.453Z,96608.47
2022-11-06T00:21:30.400Z,96650.28
2022-11-06T00:23:59.377Z,96646.31
2022-11-06T00:26:30.462Z,96624.25
2022-11-06T00:28:57.691Z,96606.59
2022-11-06T00:31:30.392Z,96637.19
2022-11-06T00:33:58.822Z,96611.56
2022-11-06T00:36:27.136Z,96648.22
2022-11-06T00:38:55.249Z,96645.91
2022-11-06T00:41:23.329Z,96647.78
2022-11-06T00:43:56.056Z,96624.38
2022-11-06T00:46:23.197Z,96662.69
2022-11-06T00:48:50.256Z,96658.47
2022-11-06T00:51:29.325Z,96663.97
2022-11-06T00:53:59.039Z,96641.00
2022-11-06T00:56:26.429Z,96660.50
2022-11-06T00:58:53.491Z,96604.34
2022-11-06T01:01:30.039Z,96650.63
2022-11-06T01:03:59.482Z,96615.53
2022-11-06T01:06:29.463Z,96647.00
2022-11-06T01:08:57.105Z,96651.47
2022-11-06T01:11:25.012Z,96651.44
2022-11-06T01:13:58.238Z,96645.72
2022-11-06T01:16:26.187Z,96593.19
2022-11-06T01:18:54.325Z,96636.09
2022-11-06T01:21:29.374Z,96600.00
2022-11-06T01:24:02.477Z,96646.25
2022-11-06T01:26:38.300Z,96654.06
2022-11-06T01:29:10.888Z,96630.97
2022-11-06T01:31:38.528Z,96651.28
2022-11-06T01:34:05.161Z,96640.66
2022-11-06T01:36:32.718Z,96594.81
2022-11-06T01:39:04.215Z,96653.91
2022-11-06T01:41:38.071Z,96654.44
2022-11-06T01:44:50.484Z,96657.84
2022-11-06T01:47:28.820Z,96656.84
2022-11-06T01:49:58.647Z,96659.22
2022-11-06T01:52:28.193Z,96644.38
2022-11-06T01:55:00.917Z,96667.78
2022-11-06T01:57:27.717Z,96672.50
2022-11-06T01:59:55.410Z,96608.78
2022-11-06T02:02:23.009Z,96605.88
2022-11-06T02:04:50.434Z,96661.06
2022-11-06T02:07:18.682Z,96618.63
2022-11-06T02:09:45.737Z,96651.38
2022-11-06T02:12:14.661Z,96658.16
2022-11-06T02:15:01.506Z,96655.03
2022-11-06T02:17:40.110Z,96655.38
2022-11-06T02:20:26.010Z,96617.09
2022-11-06T02:23:20.454Z,96651.44
2022-11-06T02:26:01.398Z,96641.59
2022-11-06T02:28:41.453Z,96612.84
2022-11-06T02:31:15.652Z,96596.97
2022-11-06T02:34:11.659Z,96592.28
2022-11-06T02:36:43.825Z,96647.00
2022-11-06T02:39:15.627Z,96645.19
2022-11-06T02:41:46.161Z,96648.75
2022-11-06T02:44:18.765Z,96609.47
2022-11-06T02:46:53.745Z,96652.25
2022-11-06T02:49:24.926Z,96620.50
2022-11-06T02:51:56.823Z,96621.19
2022-11-06T02:54:26.647Z,96633.78
2022-11-06T02:56:56.136Z,96628.38
2022-11-06T02:59:41.436Z,96603.41
2022-11-06T03:02:14.248Z,96645.59
2022-11-06T03:04:48.717Z,96610.59
2022-11-06T03:07:28.744Z,96596.50
2022-11-06T03:09:56.265Z,96593.88
2022-11-06T03:12:31.176Z,96630.03
2022-11-06T03:15:02.965Z,96627.66
2022-11-06T03:17:39.500Z,96606.34
2022-11-06T03:20:21.800Z,96604.84
2022-11-06T03:22:55.634Z,96631.44
2022-11-06T03:25:24.830Z,96631.47
2022-11-06T03:28:10.832Z,96632.00
2022-11-06T03:30:44.887Z,96584.91
2022-11-06T03:33:20.139Z,96605.75
2022-11-06T03:35:53.045Z,96609.13
2022-11-06T03:38:37.169Z,96619.78
2022-11-06T03:41:20.552Z,96564.16
2022-11-06T03:43:49.531Z,96587.22
2022-11-06T03:46:22.008Z,96591.16
2022-11-06T03:49:01.011Z,96554.44
2022-11-06T03:51:39.132Z,96618.44
2022-11-06T03:54:13.834Z,96572.66
2022-11-06T03:56:50.974Z,96561.56
2022-11-06T03:59:23.339Z,96608.88
2022-11-06T04:01:53.380Z,96619.56
2022-11-06T04:04:27.922Z,96572.44
2022-11-06T04:07:02.275Z,96609.66
2022-11-06T04:09:51.687Z,96608.66
2022-11-06T04:12:41.535Z,96593.56
2022-11-06T04:15:13.247Z,96570.94
2022-11-06T04:17:40.981Z,96605.81
2022-11-06T04:20:12.248Z,96538.41
2022-11-06T04:22:41.872Z,96612.91
2022-11-06T04:25:33.282Z,96602.69
2022-11-06T04:28:06.075Z,96607.13
2022-11-06T04:30:40.413Z,96575.38
2022-11-06T04:33:14.534Z,96607.69
2022-11-06T04:36:06.349Z,96605.81
2022-11-06T04:38:54.568Z,96603.25
2022-11-06T04:41:34.518Z,96561.84
2022-11-06T04:44:10.897Z,96577.72
2022-11-06T04:46:45.229Z,96555.56
2022-11-06T04:49:13.243Z,96554.28
2022-11-06T04:51:42.597Z,96532.44
2022-11-06T04:54:10.590Z,96562.38
2022-11-06T04:56:42.860Z,96552.19
2022-11-06T04:59:15.462Z,96563.41
2022-11-06T05:01:42.073Z,96487.69
2022-11-06T05:04:09.346Z,96555.31
2022-11-06T05:06:35.995Z,96551.69
2022-11-06T05:09:02.801Z,96550.38
2022-11-06T05:11:29.390Z,96569.09
2022-11-06T05:13:56.014Z,96591.47
2022-11-06T05:16:22.621Z,96510.75
2022-11-06T05:18:49.198Z,96585.69
2022-11-06T05:21:34.383Z,96551.88
2022-11-06T05:24:00.968Z,96545.88
2022-11-06T05:26:27.634Z,96559.41
2022-11-06T05:28:54.171Z,96573.97
2022-11-06T05:31:20.817Z,96571.63
2022-11-06T05:33:47.394Z,96514.38
2022-11-06T05:36:14.014Z,96554.63
2022-11-06T05:38:40.709Z,96560.00
2022-11-06T05:41:07.335Z,96545.75
2022-11-06T05:43:33.988Z,96546.16
2022-11-06T05:46:00.643Z,96499.09
2022-11-06T05:48:28.503Z,96499.50
2022-11-06T05:51:03.882Z,96494.84
2022-11-06T05:53:35.767Z,96518.47
2022-11-06T05:56:03.488Z,96551.47
2022-11-06T05:58:30.097Z,96512.25
2022-11-06T06:00:58.147Z,96566.84
2022-11-06T06:03:25.651Z,96567.34
2022-11-06T06:05:52.350Z,96495.00
2022-11-06T06:08:19.171Z,96548.34
2022-11-06T06:10:47.347Z,96556.44
2022-11-06T06:13:14.866Z,96575.63
2022-11-06T06:15:42.864Z,96547.78
2022-11-06T06:18:10.362Z,96518.59
2022-11-06T06:20:37.235Z,96567.22
2022-11-06T06:23:03.862Z,96487.19
2022-11-06T06:25:31.045Z,96552.72
2022-11-06T06:27:58.430Z,96559.72
2022-11-06T06:30:25.517Z,96558.69
2022-11-06T06:32:52.371Z,96551.94
2022-11-06T06:35:19.018Z,96569.41
2022-11-06T06:37:54.827Z,96516.78
2022-11-06T06:40:23.110Z,96551.16
2022-11-06T06:42:49.705Z,96512.25
2022-11-06T06:45:16.491Z,96522.59
2022-11-06T06:47:43.079Z,96564.63
2022-11-06T06:50:10.390Z,96509.34
2022-11-06T06:52:37.152Z,96540.38
2022-11-06T06:55:04.841Z,96578.41
2022-11-06T06:57:31.450Z,96536.34
2022-11-06T06:59:58.104Z,96581.81
2022-11-06T07:02:24.806Z,96564.47
2022-11-06T07:04:51.450Z,96566.22
2022-11-06T07:07:18.149Z,96546.75
2022-11-06T07:09:44.725Z,96560.19
2022-11-06T07:12:11.318Z,96558.09
2022-11-06T07:14:38.000Z,96576.84
2022-11-06T07:17:04.574Z,96603.13
2022-11-06T07:19:31.133Z,96504.94
2022-11-06T07:21:57.767Z,96603.41
2022-11-06T07:24:24.357Z,96532.59
2022-11-06T07:26:50.932Z,96597.41
2022-11-06T07:29:17.563Z,96573.00
2022-11-06T07:31:44.180Z,96619.88
2022-11-06T07:34:10.863Z,96567.34
2022-11-06T07:36:37.526Z,96583.56
2022-11-06T07:39:04.205Z,96590.34
2022-11-06T07:41:30.855Z,96613.13
2022-11-06T07:43:57.520Z,96612.38
2022-11-06T07:46:24.141Z,96588.59
2022-11-06T07:48:50.808Z,96630.25
2022-11-06T07:51:17.559Z,96638.59
2022-11-06T07:53:44.145Z,96652.38
2022-11-06T07:56:10.735Z,96591.19
2022-11-06T07:58:37.560Z,96643.75
2022-11-06T08:01:04.495Z,96582.34
2022-11-06T08:03:31.353Z,96621.84
2022-11-06T08:05:59.327Z,96582.50
2022-11-06T08:08:27.464Z,96568.88
2022-11-06T08:10:55.125Z,96570.44
2022-11-06T08:13:21.909Z,96606.31
2022-11-06T08:15:48.539Z,96556.56
2022-11-06T08:18:15.549Z,96563.28
2022-11-06T08:20:42.451Z,96590.69
2022-11-06T08:23:11.733Z,96592.53
2022-11-06T08:25:38.483Z,96562.09
2022-11-06T08:28:05.833Z,96598.63
2022-11-06T08:30:32.568Z,96586.16
2022-11-06T08:33:04.931Z,96596.47
2022-11-06T08:35:32.229Z,96588.06
2022-11-06T08:37:58.867Z,96567.81
2022-11-06T08:40:30.570Z,96513.22
2022-11-06T08:43:06.965Z,96573.88
2022-11-06T08:45:36.984Z,96584.88
2022-11-06T08:48:04.660Z,96579.22
2022-11-06T08:50:32.698Z,96565.19
2022-11-06T08:53:04.440Z,96573.72
2022-11-06T08:55:32.427Z,96567.53
2022-11-06T08:57:59.645Z,96552.28
2022-11-06T09:00:27.012Z,96496.88
2022-11-06T09:03:01.385Z,96526.94
2022-11-06T09:05:29.425Z,96543.53
2022-11-06T09:07:59.553Z,96539.06
2022-11-06T09:10:27.573Z,96500.41
2022-11-06T09:12:54.527Z,96485.50
2022-11-06T09:15:21.259Z,96485.59
2022-11-06T09:17:50.247Z,96480.09
2022-11-06T09:20:21.694Z,96508.75
2022-11-06T09:22:48.949Z,96485.88
2022-11-06T09:25:15.756Z,96497.31
2022-11-06T09:27:47.919Z,96473.34
2022-11-06T09:30:17.378Z,96515.50
2022-11-06T09:32:49.159Z,96460.00
2022-11-06T09:35:16.192Z,96469.28
2022-11-06T09:37:43.060Z,96472.41
2022-11-06T09:40:20.715Z,96520.25
2022-11-06T09:43:02.455Z,96520.19
2022-11-06T09:45:32.261Z,96521.09
2022-11-06T09:48:01.843Z,96527.69
2022-11-06T09:50:34.204Z,96518.13
2022-11-06T09:53:07.595Z,96509.84
2022-11-06T09:55:39.741Z,96460.72
2022-11-06T09:58:24.341Z,96470.16
2022-11-06T10:00:53.423Z,96473.31
2022-11-06T10:03:29.521Z,96504.56
2022-11-06T10:05:56.255Z,96478.13
2022-11-06T10:08:26.976Z,96483.94
2022-11-06T10:11:03.118Z,96440.50
2022-11-06T10:13:47.748Z,96495.19
2022-11-06T10:16:23.460Z,96490.84
2022-11-06T10:19:19.718Z,96488.03
2022-11-06T10:21:49.033Z,96483.69
2022-11-06T10:24:35.142Z,96475.84
2022-11-06T10:27:10.872Z,96483.69
2022-11-06T10:30:08.672Z,96476.91
2022-11-06T10:32:45.075Z,96475.44
2022-11-06T10:35:27.948Z,96446.59
2022-11-06T10:38:03.864Z,96461.50
2022-11-06T10:40:32.691Z,96455.28
2022-11-06T10:43:36.938Z,96456.34
2022-11-06T10:46:20.570Z,96459.56
2022-11-06T10:48:52.821Z,96432.81
2022-11-06T10:52:04.009Z,96459.56
2022-11-06T10:54:52.574Z,96460.44
2022-11-06T10:57:41.491Z,96424.22
2022-11-06T11:00:15.981Z,96436.16
2022-11-06T11:02:53.237Z,96399.69
2022-11-06T11:05:22.181Z,96409.84
2022-11-06T11:07:50.824Z,96412.66
2022-11-06T11:10:23.467Z,96421.13
2022-11-06T11:12:52.315Z,96387.28
2022-11-06T11:15:21.379Z,96408.69
2022-11-06T11:18:07.812Z,96397.91
2022-11-06T11:20:37.084Z,96364.28
2022-11-06T11:23:22.508Z,96389.69
2022-11-06T11:25:55.033Z,96348.09
2022-11-06T11:28:29.768Z,96388.31
2022-11-06T11:31:10.661Z,96383.72
2022-11-06T11:33:39.398Z,96364.59
2022-11-06T11:36:08.502Z,96321.31
2022-11-06T11:38:37.749Z,96329.53
2022-11-06T11:41:09.440Z,96360.41
2022-11-06T11:43:36.122Z,96317.84
2022-11-06T11:46:09.004Z,96345.34
2022-11-06T11:48:55.984Z,96339.09
2022-11-06T11:51:43.321Z,96302.34
2022-11-06T11:54:12.980Z,96345.09
2022-11-06T11:57:04.743Z,96343.44
2022-11-06T11:59:43.740Z,96319.78
2022-11-06T12:02:28.279Z,96355.53
2022-11-06T12:05:13.671Z,96337.53
2022-11-06T12:07:50.034Z,96347.91
2022-11-06T12:10:28.544Z,96344.88
2022-11-06T12:12:57.446Z,96343.38
2022-11-06T12:15:51.213Z,96335.88
2022-11-06T12:18:27.229Z,96323.41
2022-11-06T12:21:17.368Z,96323.03
2022-11-06T12:23:55.756Z,96315.00
2022-11-06T12:26:37.495Z,96312.56
2022-11-06T12:29:19.376Z,96307.31
2022-11-06T12:32:06.261Z,96310.13
2022-11-06T12:34:55.418Z,96310.28
2022-11-06T12:37:46.969Z,96279.03
2022-11-06T12:40:28.723Z,96302.47
2022-11-06T12:43:20.838Z,96252.75
2022-11-06T12:46:29.458Z,96282.22
2022-11-06T12:48:58.996Z,96283.31
2022-11-06T12:52:02.907Z,96280.22
2022-11-06T12:55:03.741Z,96282.13
2022-11-06T12:57:53.643Z,96250.47
2022-11-06T13:00:26.039Z,96275.94
2022-11-06T13:03:19.702Z,96278.72
2022-11-06T13:05:46.275Z,96274.13
2022-11-06T13:08:32.621Z,96282.19
2022-11-06T13:11:21.092Z,96279.56
2022-11-06T13:14:27.766Z,96285.41
2022-11-06T13:17:06.092Z,96246.53
2022-11-06T13:19:32.677Z,96278.88
2022-11-06T13:22:11.480Z,96272.00
2022-11-06T13:24:48.111Z,96269.09
2022-11-06T13:27:33.500Z,96259.59
2022-11-06T13:30:15.462Z,96245.19
2022-11-06T13:32:51.025Z,96239.44
2022-11-06T13:35:21.998Z,96214.97
2022-11-06T13:37:51.165Z,96205.50
2022-11-06T13:40:37.186Z,96249.59
2022-11-06T13:43:28.900Z,96230.34
2022-11-06T13:46:08.890Z,96236.22
2022-11-06T13:48:47.755Z,96236.38
2022-11-06T13:51:43.735Z,96218.06
2022-11-06T13:54:35.254Z,96221.03
2022-11-06T13:57:30.602Z,96169.41
2022-11-06T14:00:20.044Z,96205.44
2022-11-06T14:03:08.557Z,96207.97
2022-11-06T14:05:59.723Z,96215.28
2022-11-06T14:08:44.844Z,96151.03
2022-11-06T14:11:14.912Z,96167.59
2022-11-06T14:13:42.133Z,96194.03
2022-11-06T14:16:37.505Z,96203.69
2022-11-06T14:19:26.994Z,96200.88
2022-11-06T14:22:25.529Z,96200.06
2022-11-06T14:24:56.983Z,96170.75
2022-11-06T14:27:26.672Z,96191.31
2022-11-06T14:30:02.396Z,96187.81
2022-11-06T14:32:35.525Z,96125.13
2022-11-06T14:35:30.975Z,96157.53
2022-11-06T14:38:26.943Z,96159.19
2022-11-06T14:40:54.631Z,96149.97
2022-11-06T14:43:36.842Z,96128.03
2022-11-06T14:46:22.175Z,96148.84
2022-11-06T14:48:51.953Z,96128.69
2022-11-06T14:51:26.488Z,96101.19
2022-11-06T14:53:58.923Z,96134.03
2022-11-06T14:56:28.900Z,96141.84
2022-11-06T14:59:08.974Z,96101.53
2022-11-06T15:01:37.508Z,96124.19
2022-11-06T15:04:13.372Z,96136.81
2022-11-06T15:06:43.829Z,96125.28
2022-11-06T15:09:12.334Z,96132.09
2022-11-06T15:11:48.001Z,96128.72
2022-11-06T15:14:14.864Z,96121.31
2022-11-06T15:16:49.786Z,96109.75
2022-11-06T15:19:34.447Z,96115.94
2022-11-06T15:22:14.113Z,96095.34
2022-11-06T15:24:44.357Z,96106.19
2022-11-06T15:27:20.545Z,96038.25
2022-11-06T15:29:52.059Z,96055.28
2022-11-06T15:32:22.663Z,96054.78
2022-11-06T15:35:11.254Z,96094.53
2022-11-06T15:37:40.451Z,96090.63
2022-11-06T15:40:23.365Z,96084.44
2022-11-06T15:42:50.368Z,96091.69
2022-11-06T15:45:16.984Z,96098.47
2022-11-06T15:47:56.759Z,96084.56
2022-11-06T15:50:26.374Z,96091.47
2022-11-06T15:52:53.274Z,96085.41
2022-11-06T15:55:28.886Z,96080.28
2022-11-06T15:58:06.208Z,96078.00
2022-11-06T16:00:35.844Z,96058.09
2022-11-06T16:03:05.418Z,96043.91
2022-11-06T16:05:36.858Z,96040.91
2022-11-06T16:08:06.146Z,96077.53
2022-11-06T16:10:35.939Z,96075.59
2022-11-06T16:13:04.026Z,96033.06
2022-11-06T16:15:43.761Z,96066.81
2022-11-06T16:18:22.888Z,96068.63
2022-11-06T16:20:55.379Z,96079.66
2022-11-06T16:23:34.845Z,96039.72
2022-11-06T16:26:10.089Z,96019.13
2022-11-06T16:28:46.639Z,96038.63
2022-11-06T16:31:22.409Z,96064.88
2022-11-06T16:33:58.307Z,96062.59
2022-11-06T16:36:26.768Z,96022.56
2022-11-06T16:38:54.764Z,96038.44
2022-11-06T16:41:56.913Z,95956.13
2022-11-06T16:44:31.776Z,96025.28
2022-11-06T16:47:10.646Z,96043.66
2022-11-06T16:49:54.090Z,96055.41
2022-11-06T16:52:29.460Z,96057.81
2022-11-06T16:55:17.259Z,96056.47
2022-11-06T16:57:55.207Z,96022.28
2022-11-06T17:00:21.829Z,96054.72
2022-11-06T17:02:48.450Z,96052.41
2022-11-06T17:05:36.983Z,95948.47
2022-11-06T17:08:06.887Z,96051.94
2022-11-06T17:10:41.129Z,96059.28
2022-11-06T17:13:14.402Z,95996.81
2022-11-06T17:15:42.593Z,96024.50
2022-11-06T17:18:31.752Z,96024.69
2022-11-06T17:21:12.449Z,96046.78
2022-11-06T17:23:39.687Z,96037.88
2022-11-06T17:26:22.585Z,96068.34
2022-11-06T17:28:49.639Z,96049.06
2022-11-06T17:31:17.790Z,96069.78
2022-11-06T17:33:44.783Z,96068.91
2022-11-06T17:36:18.995Z,96056.34
2022-11-06T17:38:46.517Z,96070.78
2022-11-06T17:41:13.598Z,96030.66
2022-11-06T17:43:40.348Z,96053.06
2022-11-06T17:46:07.101Z,96010.09
2022-11-06T17:48:34.993Z,96021.88
2022-11-06T17:51:20.287Z,96043.81
2022-11-06T17:53:48.301Z,96033.63
2022-11-06T17:56:14.941Z,96012.81
2022-11-06T17:58:41.677Z,96013.59
2022-11-06T18:01:10.481Z,96055.47
2022-11-06T18:03:44.300Z,96052.34
2022-11-06T18:06:15.633Z,96021.00
2022-11-06T18:08:42.855Z,96051.47
2022-11-06T18:11:10.598Z,96041.50
2022-11-06T18:13:38.260Z,96024.16
2022-11-06T18:16:14.135Z,96031.69
2022-11-06T18:18:40.815Z,95998.22
2022-11-06T18:21:07.464Z,96004.28
2022-11-06T18:23:36.072Z,96021.81
2022-11-06T18:26:02.728Z,96022.34
2022-11-06T18:28:29.519Z,96063.66
2022-11-06T18:30:58.217Z,96061.53
2022-11-06T18:33:25.356Z,96048.75
2022-11-06T18:35:52.139Z,96019.16
2022-11-06T18:38:18.867Z,96012.00
2022-11-06T18:40:51.210Z,96011.06
2022-11-06T18:43:18.491Z,96005.06
2022-11-06T18:45:45.178Z,96027.63
2022-11-06T18:48:14.726Z,96070.63
2022-11-06T18:50:43.968Z,96049.72
2022-11-06T18:53:10.740Z,96029.84
2022-11-06T18:55:44.542Z,96054.97
2022-11-06T18:58:11.666Z,96027.16
2022-11-06T19:00:38.693Z,96005.53
2022-11-06T19:03:06.149Z,96053.97
2022-11-06T19:05:34.338Z,96037.59
2022-11-06T19:08:02.546Z,96024.63
2022-11-06T19:10:31.265Z,96040.63
2022-11-06T19:12:59.617Z,96008.88
2022-11-06T19:15:26.660Z,96052.09
2022-11-06T19:17:54.720Z,96055.00
2022-11-06T19:20:22.292Z,96030.09
2022-11-06T19:22:51.069Z,96040.97
2022-11-06T19:25:19.125Z,96018.25
2022-11-06T19:27:46.184Z,95987.47
2022-11-06T19:30:13.774Z,96050.72
2022-11-06T19:32:41.100Z,96045.78
2022-11-06T19:35:08.384Z,96042.81
2022-11-06T19:37:36.142Z,96042.03
2022-11-06T19:40:06.040Z,96040.91
2022-11-06T19:42:33.445Z,96035.44
2022-11-06T19:45:00.379Z,96055.66
2022-11-06T19:47:28.171Z,96028.00
2022-11-06T19:49:54.824Z,96030.13
2022-11-06T19:52:43.272Z,96021.44
2022-11-06T19:55:26.416Z,96030.53
2022-11-06T19:57:57.332Z,96047.66
2022-11-06T20:00:23.985Z,95999.78
2022-11-06T20:02:51.063Z,96002.75
2022-11-06T20:05:18.272Z,95998.31
2022-11-06T20:07:45.023Z,96044.28
2022-11-06T20:10:11.904Z,95992.47
2022-11-06T20:12:38.604Z,96001.56
2022-11-06T20:15:05.836Z,96024.25
2022-11-06T20:17:32.533Z,96019.25
2022-11-06T20:19:59.120Z,96076.41
2022-11-06T20:22:25.846Z,96062.69
2022-11-06T20:24:52.517Z,96017.22
2022-11-06T20:27:19.273Z,96036.38
2022-11-06T20:29:46.057Z,96018.19
2022-11-06T20:32:18.627Z,96064.25
2022-11-06T20:34:46.094Z,96074.81
2022-11-06T20:37:12.952Z,96008.25
2022-11-06T20:39:41.581Z,96024.31
2022-11-06T20:42:08.622Z,96040.81
2022-11-06T20:44:35.333Z,96023.75
2022-11-06T20:47:02.006Z,96034.00
2022-11-06T20:49:28.726Z,96024.13
2022-11-06T20:52:13.363Z,96022.22
2022-11-06T20:54:46.405Z,96028.97
2022-11-06T20:57:15.670Z,96039.66
2022-11-06T20:59:42.599Z,96051.41
2022-11-06T21:02:11.641Z,96056.19
2022-11-06T21:04:38.577Z,96036.34
2022-11-06T21:07:05.554Z,96042.06
2022-11-06T21:09:32.474Z,96047.13
2022-11-06T21:11:59.144Z,96054.41
2022-11-06T21:14:25.909Z,96037.88
2022-11-06T21:16:54.108Z,96003.19
2022-11-06T21:19:20.835Z,96004.06
2022-11-06T21:21:47.633Z,96010.25
2022-11-06T21:24:14.314Z,95990.31
2022-11-06T21:26:41.353Z,95990.59
2022-11-06T21:29:10.877Z,96041.84
2022-11-06T21:31:44.028Z,96014.34
2022-11-06T21:34:15.711Z,95979.47
2022-11-06T21:36:42.658Z,96042.13
2022-11-06T21:39:14.946Z,95972.88
2022-11-06T21:41:41.967Z,96046.81
2022-11-06T21:44:12.296Z,96053.88
2022-11-06T21:46:44.222Z,96024.22
2022-11-06T21:49:12.218Z,95918.41
2022-11-06T21:51:39.039Z,96053.00
2022-11-06T21:54:24.286Z,96022.56
2022-11-06T21:56:51.039Z,96059.78
2022-11-06T21:59:20.438Z,96042.25
2022-11-06T22:01:50.140Z,96006.59
2022-11-06T22:04:16.929Z,96061.44
2022-11-06T22:06:44.098Z,96070.91
2022-11-06T22:09:13.000Z,96076.91
2022-11-06T22:11:42.683Z,96027.97
2022-11-06T22:14:13.512Z,96054.13
2022-11-06T22:16:42.563Z,96069.66
2022-11-06T22:19:10.571Z,96068.69
2022-11-06T22:21:39.107Z,96066.94
2022-11-06T22:24:07.166Z,96056.47
2022-11-06T22:26:35.320Z,96077.19
2022-11-06T22:29:06.090Z,96054.25
2022-11-06T22:31:32.905Z,96067.97
2022-11-06T22:33:59.752Z,96074.19
2022-11-06T22:36:26.781Z,96057.59
2022-11-06T22:38:53.909Z,96098.72
2022-11-06T22:41:23.724Z,96090.09
2022-11-06T22:43:51.338Z,96077.88
2022-11-06T22:46:20.636Z,96056.38
2022-11-06T22:48:47.873Z,96063.34
2022-11-06T22:51:17.480Z,96081.00
2022-11-06T22:53:44.251Z,96041.03
2022-11-06T22:56:12.637Z,96087.09
2022-11-06T22:58:40.833Z,96084.09
2022-11-06T23:01:08.446Z,96063.91
2022-11-06T23:03:35.691Z,96086.69
2022-11-06T23:06:04.751Z,96089.69
2022-11-06T23:08:31.732Z,96039.19
2022-11-06T23:10:59.309Z,96041.16
2022-11-06T23:13:25.915Z,96073.91
2022-11-06T23:16:02.102Z,96072.75
2022-11-06T23:18:28.724Z,96013.81
2022-11-06T23:20:55.388Z,96035.25
2022-11-06T23:23:22.027Z,96048.53
2022-11-06T23:25:48.728Z,96063.03
2022-11-06T23:28:15.613Z,96090.38
2022-11-06T23:30:42.303Z,96065.47
2022-11-06T23:33:08.942Z,96039.78
2022-11-06T23:35:35.568Z,96062.38
2022-11-06T23:38:02.209Z,96076.06
2022-11-06T23:40:28.851Z,96069.28
2022-11-06T23:42:57.205Z,96080.69
2022-11-06T23:45:42.431Z,96078.47
2022-11-06T23:48:13.444Z,96110.66
2022-11-06T23:50:41.192Z,96065.94
2022-11-06T23:53:07.836Z,96055.41
2022-11-06T23:55:34.544Z,96070.34
2022-11-06T23:58:01.233Z,96097.16
